createdAt,value
2022-12-03T00:00:45.556Z,25.58
2022-12-03T00:03:12.480Z,24.90
2022-12-03T00:05:41.909Z,24.50
2022-12-03T00:08:14.941Z,26.30
2022-12-03T00:10:41.745Z,28.67
2022-12-03T00:13:08.487Z,31.80
2022-12-03T00:15:35.251Z,32.47
2022-12-03T00:18:02.031Z,34.28
2022-12-03T00:20:28.772Z,33.03
2022-12-03T00:22:55.564Z,34.13
2022-12-03T00:25:22.424Z,32.28
2022-12-03T00:27:49.172Z,33.10
2022-12-03T00:30:16.061Z,33.22
2022-12-03T00:32:42.920Z,31.67
2022-12-03T00:35:10.181Z,30.95
2022-12-03T00:37:36.955Z,31.85
2022-12-03T00:40:05.310Z,28.85
2022-12-03T00:42:32.049Z,30.85
2022-12-03T00:44:58.812Z,31.20
2022-12-03T00:47:25.564Z,32.05
2022-12-03T00:49:52.332Z,30.40
2022-12-03T00:52:19.243Z,29.52
2022-12-03T00:54:45.993Z,32.00
2022-12-03T00:57:12.974Z,32.40
2022-12-03T00:59:39.693Z,32.53
2022-12-03T01:02:06.571Z,30.40
2022-12-03T01:04:34.033Z,28.92
2022-12-03T01:07:01.387Z,29.92
2022-12-03T01:09:28.108Z,29.65
2022-12-03T01:11:54.888Z,30.63
2022-12-03T01:14:21.986Z,32.53
2022-12-03T01:16:49.155Z,30.85
2022-12-03T01:19:17.182Z,31.58
2022-12-03T01:21:49.777Z,31.20
2022-12-03T01:24:17.308Z,30.98
2022-12-03T01:26:44.227Z,32.53
2022-12-03T01:29:11.203Z,30.33
2022-12-03T01:31:56.333Z,31.70
2022-12-03T01:34:26.018Z,30.67
2022-12-03T01:36:52.764Z,29.65
2022-12-03T01:39:19.661Z,29.67
2022-12-03T01:41:48.714Z,30.42
2022-12-03T01:44:21.053Z,30.83
2022-12-03T01:46:48.914Z,28.27
2022-12-03T01:49:21.472Z,31.55
2022-12-03T01:51:49.727Z,30.63
2022-12-03T01:54:20.062Z,33.13
2022-12-03T01:56:47.869Z,29.92
2022-12-03T01:59:18.312Z,30.75
2022-12-03T02:01:45.988Z,29.00
2022-12-03T02:04:15.177Z,33.58
2022-12-03T02:06:44.512Z,31.23
2022-12-03T02:09:12.712Z,30.95
2022-12-03T02:11:49.354Z,32.58
2022-12-03T02:14:21.620Z,32.85
2022-12-03T02:16:48.866Z,33.00
2022-12-03T02:19:26.538Z,32.75
2022-12-03T02:22:27.911Z,30.33
2022-12-03T02:25:27.273Z,30.77
2022-12-03T02:27:55.431Z,29.77
2022-12-03T02:30:24.510Z,31.50
2022-12-03T02:32:53.015Z,32.47
2022-12-03T02:35:22.394Z,31.15
2022-12-03T02:37:54.714Z,30.45
2022-12-03T02:40:24.592Z,31.88
2022-12-03T02:42:55.408Z,30.55
2022-12-03T02:45:29.814Z,31.40
2022-12-03T02:48:03.822Z,31.20
2022-12-03T02:50:34.396Z,30.87
2022-12-03T02:53:04.733Z,30.05
2022-12-03T02:55:37.133Z,30.10
2022-12-03T02:58:05.359Z,27.05
2022-12-03T03:00:33.511Z,27.65
2022-12-03T03:03:02.631Z,28.33
2022-12-03T03:05:29.682Z,25.58
2022-12-03T03:07:58.345Z,27.45
2022-12-03T03:10:26.081Z,27.17
2022-12-03T03:12:54.871Z,26.40
2022-12-03T03:15:23.237Z,26.63
2022-12-03T03:17:50.215Z,29.42
2022-12-03T03:20:17.285Z,28.13
2022-12-03T03:22:44.129Z,28.35
2022-12-03T03:25:15.327Z,29.60
2022-12-03T03:27:45.703Z,29.23
2022-12-03T03:30:13.891Z,28.40
2022-12-03T03:32:41.916Z,29.13
2022-12-03T03:35:10.377Z,30.58
2022-12-03T03:37:37.331Z,29.25
2022-12-03T03:40:04.478Z,28.30
2022-12-03T03:42:31.321Z,27.02
2022-12-03T03:44:58.684Z,29.58
2022-12-03T03:47:25.739Z,29.00
2022-12-03T03:49:53.165Z,27.35
2022-12-03T03:52:20.541Z,26.48
2022-12-03T03:54:47.661Z,26.20
2022-12-03T03:57:14.447Z,26.30
2022-12-03T03:59:41.412Z,26.15
2022-12-03T04:02:19.596Z,26.73
2022-12-03T04:04:47.670Z,27.00
2022-12-03T04:07:15.885Z,28.52
2022-12-03T04:09:42.692Z,28.10
2022-12-03T04:12:30.478Z,27.08
2022-12-03T04:14:57.690Z,27.25
2022-12-03T04:17:24.466Z,26.88
2022-12-03T04:19:51.305Z,29.10
2022-12-03T04:22:36.491Z,30.13
2022-12-03T04:25:22.046Z,28.67
2022-12-03T04:28:07.375Z,28.15
2022-12-03T04:30:34.116Z,28.35
2022-12-03T04:33:19.549Z,29.95
2022-12-03T04:35:46.452Z,29.15
2022-12-03T04:38:15.610Z,32.35
2022-12-03T04:41:00.810Z,30.67
2022-12-03T04:45:54.783Z,27.30
2022-12-03T04:48:21.696Z,28.90
2022-12-03T04:50:48.426Z,29.65
2022-12-03T04:53:15.224Z,31.98
2022-12-03T04:55:42.058Z,29.88
2022-12-03T04:58:09.290Z,30.30
2022-12-03T05:00:36.093Z,28.95
2022-12-03T05:03:03.005Z,30.90
2022-12-03T05:05:29.890Z,29.40
2022-12-03T05:07:56.744Z,29.25
2022-12-03T05:10:23.530Z,30.83
2022-12-03T05:12:50.245Z,28.20
2022-12-03T05:15:17.036Z,27.45
2022-12-03T05:17:43.726Z,28.20
2022-12-03T05:20:29.531Z,27.10
2022-12-03T05:22:56.793Z,23.80
2022-12-03T05:25:23.525Z,26.13
2022-12-03T05:27:50.361Z,25.90
2022-12-03T05:30:17.304Z,26.65
2022-12-03T05:32:44.110Z,25.50
2022-12-03T05:35:11.064Z,26.05
2022-12-03T05:37:37.772Z,25.85
2022-12-03T05:40:05.199Z,24.85
2022-12-03T05:42:50.633Z,23.77
2022-12-03T05:45:18.573Z,23.73
2022-12-03T05:47:45.294Z,23.83
2022-12-03T05:50:12.304Z,24.58
2022-12-03T05:52:39.218Z,25.55
2022-12-03T05:55:06.479Z,25.42
2022-12-03T05:57:33.389Z,27.08
2022-12-03T06:00:00.170Z,27.35
2022-12-03T06:02:27.047Z,26.55
2022-12-03T06:04:54.304Z,27.63
2022-12-03T06:07:21.339Z,26.35
2022-12-03T06:09:48.153Z,27.65
2022-12-03T06:12:14.955Z,25.23
2022-12-03T06:14:41.797Z,24.52
2022-12-03T06:17:08.720Z,26.13
2022-12-03T06:19:35.433Z,25.65
2022-12-03T06:22:02.223Z,25.08
2022-12-03T06:24:29.025Z,25.73
2022-12-03T06:26:55.834Z,24.80
2022-12-03T06:29:22.594Z,25.50
2022-12-03T06:31:49.383Z,23.30
2022-12-03T06:34:16.122Z,24.10
2022-12-03T06:36:42.858Z,23.35
2022-12-03T06:39:09.584Z,23.52
2022-12-03T06:41:36.354Z,24.05
2022-12-03T06:44:03.207Z,23.92
2022-12-03T06:46:30.268Z,22.52
2022-12-03T06:48:57.033Z,22.42
2022-12-03T06:51:23.834Z,23.40
2022-12-03T06:53:50.637Z,24.05
2022-12-03T06:56:21.936Z,22.50
2022-12-03T06:58:49.149Z,21.88
2022-12-03T07:01:15.995Z,23.50
2022-12-03T07:03:42.955Z,22.17
2022-12-03T07:06:09.717Z,22.25
2022-12-03T07:08:36.424Z,24.08
2022-12-03T07:11:03.164Z,21.98
2022-12-03T07:13:29.987Z,23.70
2022-12-03T07:15:56.837Z,24.98
2022-12-03T07:18:23.633Z,23.90
2022-12-03T07:20:50.383Z,23.38
2022-12-03T07:23:17.098Z,24.35
2022-12-03T07:25:43.851Z,25.15
2022-12-03T07:28:10.614Z,24.08
2022-12-03T07:30:37.383Z,26.45
2022-12-03T07:33:04.133Z,24.90
2022-12-03T07:35:30.842Z,26.00
2022-12-03T07:37:57.576Z,26.27
2022-12-03T07:40:24.383Z,27.08
2022-12-03T07:42:51.179Z,27.73
2022-12-03T07:45:17.979Z,29.00
2022-12-03T07:47:44.691Z,27.65
2022-12-03T07:50:11.848Z,29.65
2022-12-03T07:52:38.662Z,29.77
2022-12-03T07:55:05.935Z,29.10
2022-12-03T07:57:32.652Z,30.30
2022-12-03T07:59:59.440Z,31.25
2022-12-03T08:02:26.368Z,32.95
2022-12-03T08:04:53.320Z,31.50
2022-12-03T08:07:20.275Z,32.70
2022-12-03T08:09:47.167Z,32.97
2022-12-03T08:12:25.084Z,32.58
2022-12-03T08:14:52.536Z,32.97
2022-12-03T08:17:21.647Z,34.63
2022-12-03T08:19:48.396Z,31.63
2022-12-03T08:22:16.626Z,32.67
2022-12-03T08:24:44.129Z,33.28
2022-12-03T08:27:19.262Z,31.70
2022-12-03T08:29:46.539Z,32.95
2022-12-03T08:32:13.692Z,32.75
2022-12-03T08:34:44.927Z,35.00
2022-12-03T08:37:17.322Z,32.05
2022-12-03T08:39:50.029Z,34.17
2022-12-03T08:42:41.836Z,34.45
2022-12-03T08:45:40.064Z,34.75
2022-12-03T08:48:25.617Z,34.60
2022-12-03T08:51:01.969Z,33.88
2022-12-03T08:53:32.926Z,36.63
2022-12-03T08:56:20.797Z,35.28
2022-12-03T08:58:51.436Z,35.80
2022-12-03T09:01:32.228Z,34.55
2022-12-03T09:04:16.326Z,37.88
2022-12-03T09:06:43.222Z,35.38
2022-12-03T09:09:10.065Z,34.78
2022-12-03T09:11:37.084Z,33.58
2022-12-03T09:14:04.374Z,35.67
2022-12-03T09:16:31.202Z,37.60
2022-12-03T09:18:58.146Z,34.40
2022-12-03T09:21:24.915Z,36.30
2022-12-03T09:23:51.640Z,34.33
2022-12-03T09:26:18.457Z,33.92
2022-12-03T09:28:46.314Z,35.08
2022-12-03T09:31:13.016Z,33.60
2022-12-03T09:33:39.966Z,34.70
2022-12-03T09:36:06.807Z,34.55
2022-12-03T09:38:33.635Z,33.67
2022-12-03T09:41:00.582Z,34.90
2022-12-03T09:43:49.458Z,34.65
2022-12-03T09:46:19.101Z,34.03
2022-12-03T09:48:46.143Z,32.55
2022-12-03T09:51:13.358Z,36.78
2022-12-03T09:53:41.445Z,35.33
2022-12-03T09:56:20.498Z,32.78
2022-12-03T09:58:47.537Z,34.80
2022-12-03T10:01:16.175Z,36.30
2022-12-03T10:03:52.921Z,33.03
2022-12-03T10:06:22.393Z,33.65
2022-12-03T10:08:52.772Z,34.53
2022-12-03T10:11:21.854Z,33.78
2022-12-03T10:13:49.255Z,34.03
2022-12-03T10:16:20.836Z,36.22
2022-12-03T10:18:51.370Z,36.92
2022-12-03T10:21:38.344Z,36.15
2022-12-03T10:24:16.988Z,39.08
2022-12-03T10:26:45.401Z,36.10
2022-12-03T10:29:21.934Z,36.65
2022-12-03T10:32:01.078Z,36.88
2022-12-03T10:34:36.210Z,33.58
2022-12-03T10:37:20.383Z,35.38
2022-12-03T10:39:56.220Z,34.83
2022-12-03T10:42:24.297Z,36.10
2022-12-03T10:45:09.040Z,36.58
2022-12-03T10:47:35.854Z,36.15
2022-12-03T10:50:06.955Z,39.35
2022-12-03T10:52:33.765Z,35.40
2022-12-03T10:55:00.529Z,35.90
2022-12-03T10:57:27.281Z,37.65
2022-12-03T10:59:54.028Z,33.80
2022-12-03T11:02:23.806Z,35.10
2022-12-03T11:04:51.774Z,35.53
2022-12-03T11:07:20.902Z,34.58
2022-12-03T11:09:51.082Z,33.53
2022-12-03T11:12:19.486Z,35.38
2022-12-03T11:14:53.886Z,34.40
2022-12-03T11:17:44.103Z,35.55
2022-12-03T11:20:22.763Z,34.70
2022-12-03T11:22:54.651Z,35.65
2022-12-03T11:25:27.445Z,37.22
2022-12-03T11:28:15.379Z,35.92
2022-12-03T11:30:51.384Z,37.33
2022-12-03T11:33:24.150Z,36.50
2022-12-03T11:36:07.713Z,37.70
2022-12-03T11:38:37.565Z,35.83
2022-12-03T11:41:11.864Z,36.97
2022-12-03T11:43:55.995Z,37.33
2022-12-03T11:46:37.400Z,36.95
2022-12-03T11:49:28.109Z,37.97
2022-12-03T11:51:55.005Z,34.78
2022-12-03T11:54:23.109Z,35.45
2022-12-03T11:56:51.736Z,35.47
2022-12-03T11:59:19.671Z,36.70
2022-12-03T12:01:46.588Z,37.30
2022-12-03T12:04:33.864Z,36.17
2022-12-03T12:07:01.244Z,34.63
2022-12-03T12:09:54.605Z,34.28
2022-12-03T12:12:31.754Z,34.17
2022-12-03T12:14:59.595Z,34.58
2022-12-03T12:17:39.639Z,35.47
2022-12-03T12:20:28.164Z,37.33
2022-12-03T12:22:55.723Z,35.95
2022-12-03T12:25:38.222Z,36.13
2022-12-03T12:28:05.080Z,36.50
2022-12-03T12:30:31.964Z,36.28
2022-12-03T12:33:10.869Z,34.65
2022-12-03T12:35:37.650Z,35.25
2022-12-03T12:38:07.524Z,38.40
2022-12-03T12:40:42.581Z,37.35
2022-12-03T12:43:15.227Z,36.22
2022-12-03T12:45:44.136Z,30.70
2022-12-03T12:48:22.197Z,35.22
2022-12-03T12:51:06.115Z,34.60
2022-12-03T12:53:35.273Z,34.95
2022-12-03T12:56:14.296Z,36.67
2022-12-03T12:58:42.030Z,36.85
2022-12-03T13:01:19.676Z,36.75
2022-12-03T13:03:49.645Z,39.95
2022-12-03T13:06:17.180Z,38.22
2022-12-03T13:08:46.736Z,38.80
2022-12-03T13:11:42.047Z,37.15
2022-12-03T13:14:33.135Z,36.75
2022-12-03T13:17:03.864Z,37.25
2022-12-03T13:19:43.316Z,38.33
2022-12-03T13:22:18.909Z,37.83
2022-12-03T13:24:53.009Z,38.08
2022-12-03T13:27:19.774Z,32.97
2022-12-03T13:29:50.771Z,39.67
2022-12-03T13:32:31.137Z,36.88
2022-12-03T13:35:04.137Z,39.35
2022-12-03T13:37:31.751Z,35.88
2022-12-03T13:40:06.109Z,36.50
2022-12-03T13:42:38.943Z,37.90
2022-12-03T13:45:14.964Z,38.05
2022-12-03T13:47:42.353Z,37.33
2022-12-03T13:50:24.274Z,36.97
2022-12-03T13:52:52.880Z,37.28
2022-12-03T13:55:27.831Z,36.13
2022-12-03T13:57:55.029Z,36.15
2022-12-03T14:00:23.017Z,35.38
2022-12-03T14:02:50.023Z,36.70
2022-12-03T14:05:16.886Z,38.25
2022-12-03T14:07:43.850Z,36.92
2022-12-03T14:10:12.562Z,37.95
2022-12-03T14:12:39.372Z,36.97
2022-12-03T14:15:07.000Z,38.75
2022-12-03T14:17:34.004Z,38.40
2022-12-03T14:20:01.874Z,37.53
2022-12-03T14:22:28.993Z,37.88
2022-12-03T14:25:11.124Z,37.22
2022-12-03T14:27:37.919Z,37.58
2022-12-03T14:30:05.785Z,36.30
2022-12-03T14:32:32.599Z,38.65
2022-12-03T14:34:59.328Z,37.13
2022-12-03T14:37:26.293Z,37.67
2022-12-03T14:39:53.461Z,37.00
2022-12-03T14:42:20.521Z,37.28
2022-12-03T14:44:49.531Z,38.67
2022-12-03T14:47:19.029Z,36.75
2022-12-03T14:49:46.431Z,36.47
2022-12-03T14:52:13.252Z,37.97
2022-12-03T14:54:42.663Z,37.17
2022-12-03T14:57:11.660Z,37.00
2022-12-03T14:59:40.012Z,38.33
2022-12-03T15:02:07.132Z,35.05
2022-12-03T15:04:34.664Z,36.67
2022-12-03T15:07:01.466Z,37.40
2022-12-03T15:09:28.360Z,35.42
2022-12-03T15:11:55.148Z,38.45
2022-12-03T15:14:21.925Z,36.40
2022-12-03T15:16:48.817Z,36.13
2022-12-03T15:19:15.654Z,38.75
2022-12-03T15:21:42.603Z,35.65
2022-12-03T15:24:10.419Z,38.88
2022-12-03T15:26:37.343Z,36.72
2022-12-03T15:29:04.178Z,36.97
2022-12-03T15:31:31.061Z,37.35
2022-12-03T15:33:57.828Z,37.72
2022-12-03T15:36:24.595Z,39.25
2022-12-03T15:38:51.447Z,39.10
2022-12-03T15:41:30.261Z,40.63
2022-12-03T15:43:59.670Z,43.80
2022-12-03T15:46:27.919Z,40.60
2022-12-03T15:48:55.629Z,39.85
2022-12-03T15:51:22.488Z,48.13
2022-12-03T15:53:49.285Z,49.22
2022-12-03T15:56:16.125Z,44.35
2022-12-03T15:58:42.913Z,46.22
2022-12-03T16:01:10.033Z,47.05
2022-12-03T16:03:37.134Z,46.45
2022-12-03T16:06:04.092Z,45.80
2022-12-03T16:08:30.917Z,44.70
2022-12-03T16:10:57.677Z,43.35
2022-12-03T16:13:24.430Z,46.28
2022-12-03T16:15:51.267Z,42.97
2022-12-03T16:18:18.078Z,44.53
2022-12-03T16:20:44.912Z,42.55
2022-12-03T16:23:11.677Z,42.08
2022-12-03T16:25:38.577Z,42.20
2022-12-03T16:28:05.377Z,43.03
2022-12-03T16:30:32.161Z,41.28
2022-12-03T16:32:58.948Z,43.05
2022-12-03T16:35:25.731Z,43.38
2022-12-03T16:37:52.514Z,43.45
2022-12-03T16:40:19.348Z,42.38
2022-12-03T16:42:46.178Z,45.85
2022-12-03T16:45:32.065Z,42.95
2022-12-03T16:47:59.215Z,41.05
2022-12-03T16:50:29.863Z,43.78
2022-12-03T16:52:56.878Z,41.97
2022-12-03T16:55:23.603Z,42.95
2022-12-03T16:57:50.384Z,44.17
2022-12-03T17:00:17.446Z,41.72
2022-12-03T17:02:44.393Z,43.53
2022-12-03T17:05:11.270Z,42.38
2022-12-03T17:07:38.220Z,41.58
2022-12-03T17:10:05.648Z,41.70
2022-12-03T17:13:00.733Z,43.47
2022-12-03T17:15:19.116Z,43.70
2022-12-03T17:17:45.872Z,42.58
2022-12-03T17:20:14.613Z,44.67
2022-12-03T17:22:41.821Z,43.83
2022-12-03T17:25:09.981Z,42.65
2022-12-03T17:27:43.357Z,44.53
2022-12-03T17:30:12.008Z,41.80
2022-12-03T17:32:38.764Z,41.15
2022-12-03T17:35:06.069Z,40.88
2022-12-03T17:37:32.810Z,43.28
2022-12-03T17:39:59.705Z,43.08
2022-12-03T17:42:26.864Z,40.13
2022-12-03T17:44:53.687Z,42.53
2022-12-03T17:47:20.630Z,42.70
2022-12-03T17:49:47.372Z,42.85
2022-12-03T17:52:14.160Z,44.72
2022-12-03T17:55:08.518Z,43.88
2022-12-03T17:57:27.792Z,41.53
2022-12-03T17:59:54.691Z,45.53
2022-12-03T18:02:21.737Z,43.78
2022-12-03T18:04:49.197Z,43.25
2022-12-03T18:07:16.118Z,42.92
2022-12-03T18:09:42.886Z,43.88
2022-12-03T18:12:09.626Z,45.67
2022-12-03T18:14:36.376Z,43.70
2022-12-03T18:17:03.217Z,43.90
2022-12-03T18:19:29.966Z,43.58
2022-12-03T18:21:56.784Z,42.47
2022-12-03T18:24:23.677Z,47.28
2022-12-03T18:26:50.733Z,42.67
2022-12-03T18:29:17.629Z,43.78
2022-12-03T18:31:44.377Z,44.10
2022-12-03T18:34:11.225Z,45.58
2022-12-03T18:36:38.052Z,43.45
2022-12-03T18:39:09.151Z,44.35
2022-12-03T18:41:36.777Z,45.70
2022-12-03T18:44:06.631Z,44.72
2022-12-03T18:46:53.013Z,45.35
2022-12-03T18:49:21.277Z,42.35
2022-12-03T18:51:48.570Z,45.90
2022-12-03T18:54:17.029Z,43.95
2022-12-03T18:56:43.947Z,45.13
2022-12-03T18:59:11.249Z,45.85
2022-12-03T19:01:38.171Z,42.97
2022-12-03T19:04:05.252Z,42.10
2022-12-03T19:06:32.440Z,43.17
2022-12-03T19:08:59.502Z,43.92
2022-12-03T19:11:26.391Z,41.10
2022-12-03T19:13:53.403Z,42.33
2022-12-03T19:16:20.271Z,41.90
2022-12-03T19:18:47.295Z,41.53
2022-12-03T19:21:16.270Z,41.25
2022-12-03T19:24:04.294Z,40.38
2022-12-03T19:26:30.970Z,48.20
2022-12-03T19:28:57.779Z,47.65
2022-12-03T19:31:24.849Z,42.10
2022-12-03T19:33:52.034Z,44.80
2022-12-03T19:36:23.031Z,41.47
2022-12-03T19:38:56.609Z,43.20
2022-12-03T19:41:27.322Z,33.00
2022-12-03T19:43:55.869Z,40.53
2022-12-03T19:46:25.683Z,42.05
2022-12-03T19:48:54.400Z,41.13
2022-12-03T19:51:34.318Z,41.22
2022-12-03T19:54:06.422Z,42.53
2022-12-03T19:56:33.947Z,41.25
2022-12-03T19:59:00.877Z,42.13
2022-12-03T20:01:32.479Z,41.72
2022-12-03T20:04:00.967Z,42.85
2022-12-03T20:06:33.546Z,41.83
2022-12-03T20:09:04.025Z,42.50
2022-12-03T20:11:33.296Z,41.22
2022-12-03T20:14:02.862Z,38.97
2022-12-03T20:16:30.161Z,41.08
2022-12-03T20:19:00.040Z,40.75
2022-12-03T20:21:28.824Z,41.40
2022-12-03T20:23:55.723Z,40.08
2022-12-03T20:26:23.138Z,41.30
2022-12-03T20:28:52.635Z,40.92
2022-12-03T20:31:21.979Z,41.38
2022-12-03T20:33:51.525Z,39.92
2022-12-03T20:36:20.834Z,42.33
2022-12-03T20:38:47.645Z,42.22
2022-12-03T20:41:17.285Z,43.35
2022-12-03T20:43:44.539Z,41.00
2022-12-03T20:46:22.290Z,44.80
2022-12-03T20:48:49.511Z,41.25
2022-12-03T20:51:19.416Z,42.35
2022-12-03T20:53:46.732Z,44.00
2022-12-03T20:56:29.444Z,42.58
2022-12-03T20:58:56.376Z,41.20
2022-12-03T21:01:25.314Z,52.40
2022-12-03T21:03:53.997Z,46.80
2022-12-03T21:06:21.983Z,40.90
2022-12-03T21:08:49.126Z,42.50
2022-12-03T21:11:18.600Z,42.17
2022-12-03T21:13:46.638Z,41.90
2022-12-03T21:16:26.142Z,41.20
2022-12-03T21:19:07.228Z,42.08
2022-12-03T21:21:35.425Z,43.30
2022-12-03T21:24:02.415Z,43.85
2022-12-03T21:26:29.355Z,42.97
2022-12-03T21:28:56.235Z,43.38
2022-12-03T21:31:25.938Z,43.78
2022-12-03T21:33:54.194Z,41.38
2022-12-03T21:36:21.345Z,40.88
2022-12-03T21:38:48.363Z,42.63
2022-12-03T21:41:15.694Z,42.33
2022-12-03T21:43:43.719Z,39.88
2022-12-03T21:47:10.839Z,42.92
2022-12-03T21:49:01.949Z,42.63
2022-12-03T21:51:28.824Z,41.88
2022-12-03T21:53:55.591Z,40.25
2022-12-03T21:56:22.620Z,42.22
2022-12-03T21:58:49.451Z,41.50
2022-12-03T22:01:20.023Z,43.90
2022-12-03T22:03:47.707Z,40.83
2022-12-03T22:06:15.782Z,42.70
2022-12-03T22:08:43.308Z,41.63
2022-12-03T22:11:13.213Z,40.80
2022-12-03T22:13:40.524Z,39.10
2022-12-03T22:16:19.237Z,42.75
2022-12-03T22:18:46.082Z,42.25
2022-12-03T22:21:15.696Z,45.20
2022-12-03T22:23:42.560Z,41.05
2022-12-03T22:26:12.287Z,41.22
2022-12-03T22:28:43.339Z,41.03
2022-12-03T22:31:10.783Z,43.80
2022-12-03T22:33:38.118Z,41.75
2022-12-03T22:36:07.969Z,39.22
2022-12-03T22:38:35.205Z,39.38
2022-12-03T22:41:07.844Z,39.42
2022-12-03T22:43:37.137Z,40.80
2022-12-03T22:46:05.132Z,39.42
2022-12-03T22:48:34.001Z,39.22
2022-12-03T22:51:00.767Z,40.80
2022-12-03T22:53:27.551Z,41.28
2022-12-03T22:55:55.990Z,39.13
2022-12-03T22:58:23.281Z,41.50
2022-12-03T23:00:50.851Z,38.50
2022-12-03T23:03:17.784Z,39.17
2022-12-03T23:05:44.798Z,39.85
2022-12-03T23:08:14.539Z,39.53
2022-12-03T23:10:44.358Z,39.28
2022-12-03T23:13:11.796Z,42.83
2022-12-03T23:15:47.507Z,42.03
2022-12-03T23:18:14.635Z,38.95
2022-12-03T23:20:46.582Z,38.72
2022-12-03T23:23:13.816Z,39.58
2022-12-03T23:25:41.180Z,40.38
2022-12-03T23:28:08.574Z,39.75
2022-12-03T23:30:39.610Z,38.30
2022-12-03T23:33:09.599Z,38.60
2022-12-03T23:35:39.277Z,36.95
2022-12-03T23:38:06.006Z,37.95
2022-12-03T23:40:32.825Z,39.97
2022-12-03T23:42:59.601Z,40.72
2022-12-03T23:45:26.327Z,39.85
2022-12-03T23:47:58.015Z,40.05
2022-12-03T23:50:25.703Z,40.78
2022-12-03T23:52:52.950Z,40.10
2022-12-03T23:55:20.045Z,39.33
2022-12-03T23:57:46.787Z,38.65
